createdAt,value
2019-03-26T00:02:01.827Z,12.50
2019-03-26T00:04:30.763Z,16.80
2019-03-26T00:06:59.643Z,14.23
2019-03-26T00:09:28.527Z,9.20
2019-03-26T00:11:57.439Z,7.57
2019-03-26T00:14:26.351Z,5.00
2019-03-26T00:16:55.262Z,10.70
2019-03-26T00:19:24.223Z,10.97
2019-03-26T00:21:53.120Z,9.90
2019-03-26T00:24:22.034Z,11.13
2019-03-26T00:26:50.935Z,10.57
2019-03-26T00:29:19.815Z,9.27
2019-03-26T00:31:48.715Z,11.33
2019-03-26T00:34:19.497Z,9.73
2019-03-26T00:36:48.114Z,9.15
2019-03-26T00:39:17.020Z,9.58
2019-03-26T00:41:45.906Z,8.07
2019-03-26T00:44:14.791Z,6.50
2019-03-26T00:46:43.692Z,7.63
2019-03-26T00:49:12.580Z,12.13
2019-03-26T00:51:41.540Z,11.85
2019-03-26T00:54:10.427Z,6.60
2019-03-26T00:56:39.315Z,6.97
2019-03-26T00:59:08.228Z,8.63
2019-03-26T01:01:37.125Z,12.57
2019-03-26T01:04:06.043Z,5.30
2019-03-26T01:06:34.944Z,6.95
2019-03-26T01:09:05.515Z,8.40
2019-03-26T01:11:34.638Z,7.77
2019-03-26T01:14:03.551Z,10.63
2019-03-26T01:16:33.143Z,9.38
2019-03-26T01:19:02.047Z,9.18
2019-03-26T01:21:30.934Z,8.78
2019-03-26T01:23:59.826Z,5.40
2019-03-26T01:26:28.855Z,9.73
2019-03-26T01:28:57.751Z,4.57
2019-03-26T01:31:26.634Z,7.50
2019-03-26T01:33:55.538Z,6.13
2019-03-26T01:36:24.422Z,4.13
2019-03-26T01:38:53.311Z,9.37
2019-03-26T01:41:22.207Z,8.97
2019-03-26T01:43:51.131Z,5.43
2019-03-26T01:46:20.119Z,7.55
2019-03-26T01:48:49.012Z,6.63
2019-03-26T01:51:17.999Z,11.77
2019-03-26T01:53:47.383Z,8.98
2019-03-26T01:56:16.267Z,6.00
2019-03-26T01:58:45.182Z,5.47
2019-03-26T02:01:14.053Z,8.20
2019-03-26T02:03:42.936Z,4.63
2019-03-26T02:06:11.840Z,5.83
2019-03-26T02:08:40.727Z,7.47
2019-03-26T02:11:09.615Z,4.37
2019-03-26T02:13:38.511Z,7.13
2019-03-26T02:16:08.272Z,3.75
2019-03-26T02:18:37.204Z,9.00
2019-03-26T02:21:06.095Z,5.80
2019-03-26T02:23:36.035Z,7.13
2019-03-26T02:26:04.934Z,7.60
2019-03-26T02:28:33.830Z,5.47
2019-03-26T02:31:02.836Z,11.10
2019-03-26T02:33:33.343Z,7.90
2019-03-26T02:36:02.224Z,8.40
2019-03-26T02:38:31.180Z,8.50
2019-03-26T02:41:00.082Z,5.60
2019-03-26T02:43:28.983Z,6.60
2019-03-26T02:45:57.941Z,7.53
2019-03-26T02:48:26.836Z,3.90
2019-03-26T02:50:55.744Z,12.83
2019-03-26T02:53:24.623Z,7.47
2019-03-26T02:55:53.505Z,7.50
2019-03-26T02:58:22.412Z,3.00
2019-03-26T03:00:51.388Z,7.83
2019-03-26T03:03:20.325Z,11.30
2019-03-26T03:05:49.244Z,8.63
2019-03-26T03:08:18.142Z,12.23
2019-03-26T03:10:48.028Z,6.72
2019-03-26T03:13:16.940Z,7.17
2019-03-26T03:15:45.823Z,4.62
2019-03-26T03:18:14.711Z,10.63
2019-03-26T03:20:43.625Z,5.40
2019-03-26T03:23:12.603Z,4.80
2019-03-26T03:25:41.560Z,8.13
2019-03-26T03:28:10.447Z,7.08
2019-03-26T03:30:39.374Z,8.13
2019-03-26T03:33:08.245Z,3.03
2019-03-26T03:35:51.162Z,9.53
2019-03-26T03:38:07.644Z,8.13
2019-03-26T03:40:36.675Z,6.87
2019-03-26T03:43:05.576Z,5.90
2019-03-26T03:45:34.956Z,7.80
2019-03-26T03:48:03.863Z,7.07
2019-03-26T03:50:33.092Z,10.03
2019-03-26T03:53:02.076Z,9.97
2019-03-26T03:55:34.715Z,7.47
2019-03-26T03:58:03.788Z,10.60
2019-03-26T04:00:33.163Z,9.60
2019-03-26T04:03:02.341Z,8.30
2019-03-26T04:05:31.221Z,3.37
2019-03-26T04:08:00.118Z,13.83
2019-03-26T04:10:29.171Z,9.87
2019-03-26T04:12:58.008Z,6.03
2019-03-26T04:15:28.504Z,8.93
2019-03-26T04:17:57.383Z,11.93
2019-03-26T04:20:26.303Z,10.98
2019-03-26T04:22:55.175Z,9.70
2019-03-26T04:25:24.060Z,7.77
2019-03-26T04:27:52.959Z,3.47
2019-03-26T04:30:27.333Z,7.60
2019-03-26T04:32:56.237Z,4.97
2019-03-26T04:35:25.115Z,6.70
2019-03-26T04:37:54.043Z,7.43
2019-03-26T04:40:22.952Z,5.67
2019-03-26T04:42:52.431Z,5.28
2019-03-26T04:45:21.390Z,12.15
2019-03-26T04:47:50.331Z,8.80
2019-03-26T04:50:19.234Z,7.73
2019-03-26T04:52:48.136Z,10.37
2019-03-26T04:55:17.033Z,10.33
2019-03-26T04:57:45.935Z,6.03
2019-03-26T05:00:15.022Z,4.53
2019-03-26T05:02:43.911Z,5.53
2019-03-26T05:05:12.815Z,4.63
2019-03-26T05:07:41.698Z,8.93
2019-03-26T05:10:10.585Z,7.50
2019-03-26T05:12:39.483Z,8.95
2019-03-26T05:15:08.791Z,9.35
2019-03-26T05:17:37.704Z,7.78
2019-03-26T05:20:07.260Z,11.00
2019-03-26T05:22:36.242Z,8.17
2019-03-26T05:25:05.737Z,7.65
2019-03-26T05:27:44.895Z,8.60
2019-03-26T05:30:05.401Z,4.35
2019-03-26T05:32:34.299Z,10.43
2019-03-26T05:35:03.182Z,13.83
2019-03-26T05:37:32.063Z,8.50
2019-03-26T05:40:01.675Z,9.78
2019-03-26T05:42:30.617Z,10.00
2019-03-26T05:44:59.499Z,8.97
2019-03-26T05:47:28.401Z,9.47
2019-03-26T05:49:57.290Z,9.77
2019-03-26T05:52:26.195Z,9.93
2019-03-26T05:54:58.310Z,9.80
2019-03-26T05:57:27.207Z,12.33
2019-03-26T05:59:56.095Z,12.82
2019-03-26T06:02:24.991Z,8.83
2019-03-26T06:04:54.284Z,12.70
2019-03-26T06:07:23.247Z,14.53
2019-03-26T06:09:52.135Z,9.63
2019-03-26T06:12:21.023Z,17.23
2019-03-26T06:14:49.927Z,6.23
2019-03-26T06:17:18.813Z,8.40
2019-03-26T06:19:47.701Z,11.95
2019-03-26T06:22:16.598Z,9.33
2019-03-26T06:24:45.479Z,11.80
2019-03-26T06:27:14.436Z,11.57
2019-03-26T06:29:43.343Z,5.43
2019-03-26T06:32:12.219Z,16.50
2019-03-26T06:34:41.103Z,5.33
2019-03-26T06:37:17.877Z,3.33
2019-03-26T06:39:40.515Z,5.63
2019-03-26T06:42:09.665Z,8.53
2019-03-26T06:44:38.544Z,7.90
2019-03-26T06:47:07.444Z,9.40
2019-03-26T06:49:36.863Z,8.80
2019-03-26T06:52:06.735Z,11.43
2019-03-26T06:54:36.327Z,8.93
2019-03-26T06:57:05.234Z,9.10
2019-03-26T06:59:34.111Z,12.68
2019-03-26T07:02:03.069Z,9.77
2019-03-26T07:04:31.971Z,17.07
2019-03-26T07:07:00.855Z,10.53
2019-03-26T07:09:29.747Z,13.90
2019-03-26T07:11:58.669Z,8.67
2019-03-26T07:14:27.547Z,15.70
2019-03-26T07:16:56.443Z,12.78
2019-03-26T07:19:25.423Z,9.00
2019-03-26T07:21:54.323Z,12.37
2019-03-26T07:24:23.206Z,14.90
2019-03-26T07:26:52.091Z,10.80
2019-03-26T07:29:21.048Z,9.17
2019-03-26T07:31:49.895Z,11.70
2019-03-26T07:34:18.786Z,16.47
2019-03-26T07:36:47.687Z,12.67
2019-03-26T07:39:16.637Z,10.23
2019-03-26T07:41:45.520Z,13.33
2019-03-26T07:44:14.403Z,10.20
2019-03-26T07:46:43.303Z,8.53
2019-03-26T07:49:12.208Z,8.93
2019-03-26T07:51:41.094Z,12.30
2019-03-26T07:54:09.990Z,8.10
2019-03-26T07:56:40.428Z,12.50
2019-03-26T07:59:09.338Z,10.43
2019-03-26T08:01:38.219Z,12.40
2019-03-26T08:04:08.178Z,10.30
2019-03-26T08:06:37.099Z,10.23
2019-03-26T08:09:06.707Z,7.55
2019-03-26T08:11:35.625Z,8.08
2019-03-26T08:14:04.728Z,10.13
2019-03-26T08:16:33.627Z,8.50
2019-03-26T08:19:02.503Z,7.55
2019-03-26T08:21:31.388Z,8.78
2019-03-26T08:24:00.287Z,7.27
2019-03-26T08:26:29.175Z,10.17
2019-03-26T08:29:00.894Z,5.23
2019-03-26T08:31:28.702Z,5.42
2019-03-26T08:33:57.589Z,9.57
2019-03-26T08:36:26.469Z,7.37
2019-03-26T08:38:55.583Z,12.30
2019-03-26T08:41:24.449Z,9.98
2019-03-26T08:43:53.339Z,18.35
2019-03-26T08:46:22.242Z,9.47
2019-03-26T08:48:51.131Z,8.23
2019-03-26T08:51:20.027Z,11.13
2019-03-26T08:53:48.915Z,11.27
2019-03-26T08:56:17.791Z,7.43
2019-03-26T08:58:46.691Z,11.07
2019-03-26T09:01:15.586Z,7.90
2019-03-26T09:03:44.477Z,7.37
2019-03-26T09:06:13.367Z,11.03
2019-03-26T09:08:42.270Z,5.97
2019-03-26T09:11:11.155Z,10.27
2019-03-26T09:13:40.050Z,8.53
2019-03-26T09:16:08.931Z,12.33
2019-03-26T09:18:37.851Z,7.40
2019-03-26T09:21:06.739Z,10.88
2019-03-26T09:23:35.618Z,14.35
2019-03-26T09:26:04.530Z,15.88
2019-03-26T09:28:33.420Z,8.33
2019-03-26T09:31:03.268Z,7.27
2019-03-26T09:33:32.775Z,4.60
2019-03-26T09:36:01.667Z,9.80
2019-03-26T09:38:38.811Z,12.50
2019-03-26T09:41:01.679Z,9.00
2019-03-26T09:43:30.555Z,3.85
2019-03-26T09:46:00.445Z,10.00
2019-03-26T09:48:29.318Z,18.73
2019-03-26T09:50:58.202Z,8.30
2019-03-26T09:53:27.766Z,9.90
2019-03-26T09:55:56.660Z,11.10
2019-03-26T09:58:25.540Z,13.80
2019-03-26T10:00:54.459Z,8.77
2019-03-26T10:03:23.335Z,8.93
2019-03-26T10:05:52.217Z,9.67
2019-03-26T10:08:21.120Z,10.68
2019-03-26T10:10:50.015Z,14.10
2019-03-26T10:13:18.927Z,7.93
2019-03-26T10:15:47.783Z,6.87
2019-03-26T10:18:16.696Z,5.27
2019-03-26T10:20:45.651Z,7.70
2019-03-26T10:23:14.547Z,14.13
2019-03-26T10:25:43.451Z,12.67
2019-03-26T10:28:12.327Z,6.13
2019-03-26T10:30:41.228Z,8.25
2019-03-26T10:33:10.119Z,9.35
2019-03-26T10:35:39.258Z,5.85
2019-03-26T10:38:08.228Z,8.83
2019-03-26T10:40:37.277Z,11.45
2019-03-26T10:43:06.274Z,4.93
2019-03-26T10:45:35.159Z,7.47
2019-03-26T10:48:04.302Z,6.95
2019-03-26T10:50:33.211Z,8.13
2019-03-26T10:53:02.162Z,7.43
2019-03-26T10:55:32.127Z,8.23
2019-03-26T10:58:01.039Z,8.83
2019-03-26T11:00:29.947Z,4.95
2019-03-26T11:02:58.835Z,7.63
2019-03-26T11:05:27.743Z,2.73
2019-03-26T11:07:56.659Z,6.23
2019-03-26T11:10:25.554Z,8.13
2019-03-26T11:12:54.435Z,10.05
2019-03-26T11:15:23.330Z,6.60
2019-03-26T11:17:52.211Z,11.38
2019-03-26T11:20:21.179Z,8.37
2019-03-26T11:22:51.276Z,14.25
2019-03-26T11:25:20.205Z,11.07
2019-03-26T11:27:49.047Z,5.90
2019-03-26T11:30:17.948Z,11.18
2019-03-26T11:32:46.826Z,7.67
2019-03-26T11:35:15.745Z,5.87
2019-03-26T11:37:44.619Z,4.17
2019-03-26T11:40:13.706Z,11.70
2019-03-26T11:42:42.678Z,4.80
2019-03-26T11:45:11.881Z,7.95
2019-03-26T11:47:40.779Z,10.32
2019-03-26T11:50:09.810Z,5.05
2019-03-26T11:52:38.727Z,10.67
2019-03-26T11:55:07.833Z,5.80
2019-03-26T11:57:36.743Z,15.00
2019-03-26T12:00:06.767Z,5.47
2019-03-26T12:02:36.388Z,4.67
2019-03-26T12:05:05.635Z,3.37
2019-03-26T12:07:34.539Z,7.13
2019-03-26T12:10:03.483Z,9.17
2019-03-26T12:12:32.370Z,4.08
2019-03-26T12:15:01.507Z,10.50
2019-03-26T12:17:30.847Z,7.05
2019-03-26T12:19:59.727Z,4.83
2019-03-26T12:22:31.306Z,5.62
2019-03-26T12:24:59.676Z,10.05
2019-03-26T12:27:28.574Z,9.18
2019-03-26T12:29:57.481Z,6.87
2019-03-26T12:32:26.372Z,4.97
2019-03-26T12:34:55.256Z,5.20
2019-03-26T12:37:24.324Z,7.07
2019-03-26T12:39:59.414Z,12.53
2019-03-26T12:42:24.685Z,8.10
2019-03-26T12:44:53.582Z,9.93
2019-03-26T12:47:22.544Z,6.78
2019-03-26T12:49:51.429Z,9.37
2019-03-26T12:52:20.408Z,12.30
2019-03-26T12:54:49.685Z,10.75
2019-03-26T12:57:18.619Z,6.20
2019-03-26T12:59:47.499Z,11.83
2019-03-26T13:02:16.453Z,11.50
2019-03-26T13:04:45.356Z,13.77
2019-03-26T13:07:14.284Z,12.97
2019-03-26T13:09:43.163Z,9.27
2019-03-26T13:12:12.112Z,7.20
2019-03-26T13:14:41.008Z,9.10
2019-03-26T13:17:09.893Z,14.10
2019-03-26T13:19:38.813Z,12.10
2019-03-26T13:22:07.746Z,10.53
2019-03-26T13:24:36.630Z,8.30
2019-03-26T13:27:05.522Z,12.77
2019-03-26T13:29:34.427Z,10.30
2019-03-26T13:32:03.323Z,12.13
2019-03-26T13:34:32.203Z,9.10
2019-03-26T13:37:01.092Z,6.83
2019-03-26T13:39:30.055Z,9.55
2019-03-26T13:41:58.899Z,8.53
2019-03-26T13:44:27.809Z,6.60
2019-03-26T13:46:56.670Z,8.15
2019-03-26T13:49:25.568Z,6.30
2019-03-26T13:51:54.472Z,8.73
2019-03-26T13:54:23.351Z,6.63
2019-03-26T13:56:52.940Z,11.53
2019-03-26T13:59:21.840Z,8.58
2019-03-26T14:01:50.711Z,9.23
2019-03-26T14:04:19.539Z,8.37
2019-03-26T14:06:48.378Z,6.67
2019-03-26T14:09:17.283Z,14.90
2019-03-26T14:11:46.154Z,8.00
2019-03-26T14:14:15.051Z,9.23
2019-03-26T14:16:44.082Z,9.28
2019-03-26T14:19:12.979Z,9.18
2019-03-26T14:21:41.866Z,8.50
2019-03-26T14:24:13.328Z,2.37
2019-03-26T14:26:41.262Z,9.17
2019-03-26T14:29:10.396Z,8.05
2019-03-26T14:31:39.299Z,7.87
2019-03-26T14:34:08.183Z,9.68
2019-03-26T14:36:37.095Z,10.80
2019-03-26T14:39:07.992Z,8.70
2019-03-26T14:41:37.139Z,10.78
2019-03-26T14:44:06.026Z,8.23
2019-03-26T14:46:34.919Z,10.25
2019-03-26T14:49:03.835Z,11.27
2019-03-26T14:51:32.727Z,8.60
2019-03-26T14:54:01.607Z,7.23
2019-03-26T14:56:30.527Z,18.90
2019-03-26T14:58:59.406Z,8.33
2019-03-26T15:01:28.288Z,6.37
2019-03-26T15:03:57.251Z,14.33
2019-03-26T15:06:26.143Z,12.23
2019-03-26T15:08:55.051Z,11.63
2019-03-26T15:11:23.938Z,9.30
2019-03-26T15:13:52.850Z,16.55
2019-03-26T15:16:21.759Z,8.48
2019-03-26T15:18:50.647Z,4.00
2019-03-26T15:21:19.539Z,11.77
2019-03-26T15:23:48.447Z,12.30
2019-03-26T15:26:17.362Z,11.60
2019-03-26T15:28:46.247Z,13.28
2019-03-26T15:31:15.131Z,11.60
2019-03-26T15:33:44.323Z,11.30
2019-03-26T15:36:13.227Z,11.37
2019-03-26T15:38:42.267Z,5.95
2019-03-26T15:41:21.454Z,11.60
2019-03-26T15:43:42.782Z,10.58
2019-03-26T15:46:11.701Z,8.90
2019-03-26T15:48:40.563Z,6.55
2019-03-26T15:51:09.447Z,11.80
2019-03-26T15:53:38.327Z,10.17
2019-03-26T15:56:07.231Z,15.20
2019-03-26T15:58:36.112Z,9.15
2019-03-26T16:01:05.347Z,10.18
2019-03-26T16:03:34.332Z,8.90
2019-03-26T16:06:03.304Z,15.03
2019-03-26T16:08:32.116Z,11.47
2019-03-26T16:11:01.101Z,14.87
2019-03-26T16:13:30.015Z,14.33
2019-03-26T16:15:58.902Z,8.67
2019-03-26T16:18:27.782Z,13.10
2019-03-26T16:20:56.655Z,15.63
2019-03-26T16:23:25.535Z,14.87
2019-03-26T16:25:54.451Z,10.70
2019-03-26T16:28:23.323Z,8.27
2019-03-26T16:30:52.207Z,11.70
2019-03-26T16:33:22.086Z,13.97
2019-03-26T16:35:50.962Z,9.43
2019-03-26T16:38:19.847Z,8.95
2019-03-26T16:40:49.225Z,6.47
2019-03-26T16:43:19.192Z,11.20
2019-03-26T16:45:48.095Z,5.12
2019-03-26T16:48:17.007Z,11.87
2019-03-26T16:50:45.901Z,17.93
2019-03-26T16:53:15.357Z,13.48
2019-03-26T16:55:44.263Z,22.53
2019-03-26T16:58:13.147Z,17.95
2019-03-26T17:00:42.033Z,10.83
2019-03-26T17:03:10.932Z,15.83
2019-03-26T17:05:39.906Z,14.20
2019-03-26T17:08:08.811Z,16.10
2019-03-26T17:10:37.695Z,16.23
2019-03-26T17:13:06.703Z,13.20
2019-03-26T17:15:35.597Z,17.10
2019-03-26T17:18:04.771Z,12.40
2019-03-26T17:20:33.703Z,13.90
2019-03-26T17:23:02.591Z,21.57
2019-03-26T17:25:31.556Z,11.80
2019-03-26T17:28:00.481Z,11.13
2019-03-26T17:30:29.402Z,21.37
2019-03-26T17:32:58.275Z,22.97
2019-03-26T17:35:27.207Z,14.83
2019-03-26T17:37:59.889Z,17.47
2019-03-26T17:40:27.655Z,16.65
2019-03-26T17:42:56.539Z,18.57
2019-03-26T17:45:25.535Z,17.73
2019-03-26T17:47:54.431Z,14.20
2019-03-26T17:50:24.328Z,16.33
2019-03-26T17:52:53.231Z,20.20
2019-03-26T17:55:22.431Z,16.25
2019-03-26T17:57:52.283Z,15.87
2019-03-26T18:00:25.782Z,16.00
2019-03-26T18:02:54.792Z,12.13
2019-03-26T18:05:24.471Z,16.03
2019-03-26T18:07:53.378Z,16.87
2019-03-26T18:10:22.264Z,15.50
2019-03-26T18:12:51.167Z,21.27
2019-03-26T18:15:21.061Z,19.80
2019-03-26T18:17:49.990Z,14.60
2019-03-26T18:20:31.958Z,17.43
2019-03-26T18:22:50.112Z,12.87
2019-03-26T18:25:18.999Z,12.70
2019-03-26T18:27:47.950Z,20.07
2019-03-26T18:30:16.860Z,13.50
2019-03-26T18:32:45.747Z,15.15
2019-03-26T18:35:14.635Z,18.10
2019-03-26T18:37:43.594Z,20.92
2019-03-26T18:40:12.579Z,14.63
2019-03-26T18:42:44.359Z,17.33
2019-03-26T18:45:12.100Z,15.58
2019-03-26T18:47:41.078Z,13.83
2019-03-26T18:50:10.111Z,19.00
2019-03-26T18:52:39.058Z,14.00
2019-03-26T18:55:08.191Z,13.88
2019-03-26T18:57:38.859Z,20.15
2019-03-26T19:00:08.491Z,21.80
2019-03-26T19:02:37.891Z,15.60
2019-03-26T19:05:08.614Z,16.97
2019-03-26T19:07:37.503Z,17.07
2019-03-26T19:10:07.887Z,15.60
2019-03-26T19:12:36.792Z,21.70
2019-03-26T19:15:05.707Z,15.87
2019-03-26T19:17:34.691Z,19.67
2019-03-26T19:20:04.343Z,18.73
2019-03-26T19:22:33.234Z,20.03
2019-03-26T19:25:02.141Z,19.35
2019-03-26T19:27:31.015Z,16.67
2019-03-26T19:29:59.921Z,23.23
2019-03-26T19:32:28.796Z,23.83
2019-03-26T19:34:57.699Z,15.77
2019-03-26T19:37:26.562Z,25.67
2019-03-26T19:39:55.447Z,20.33
2019-03-26T19:42:24.340Z,19.10
2019-03-26T19:44:53.267Z,26.27
2019-03-26T19:47:22.159Z,18.13
2019-03-26T19:49:51.051Z,15.13
2019-03-26T19:52:19.971Z,21.82
2019-03-26T19:54:48.871Z,22.55
2019-03-26T19:57:17.771Z,26.83
2019-03-26T19:59:46.735Z,18.95
2019-03-26T20:02:15.611Z,24.73
2019-03-26T20:04:44.515Z,13.07
2019-03-26T20:07:14.107Z,19.98
2019-03-26T20:09:43.011Z,18.62
2019-03-26T20:12:11.904Z,15.28
2019-03-26T20:14:40.812Z,16.13
2019-03-26T20:17:09.694Z,18.03
2019-03-26T20:19:38.580Z,18.57
2019-03-26T20:22:07.483Z,18.67
2019-03-26T20:24:36.371Z,19.17
2019-03-26T20:27:05.255Z,20.30
2019-03-26T20:29:34.182Z,12.33
2019-03-26T20:32:03.083Z,19.57
2019-03-26T20:34:32.037Z,19.93
2019-03-26T20:37:00.921Z,16.50
2019-03-26T20:39:29.892Z,13.20
2019-03-26T20:41:58.793Z,14.23
2019-03-26T20:44:27.739Z,17.47
2019-03-26T20:46:56.651Z,15.90
2019-03-26T20:49:25.523Z,17.90
2019-03-26T20:51:54.420Z,17.93
2019-03-26T20:54:23.502Z,12.75
2019-03-26T20:56:52.392Z,9.63
2019-03-26T20:59:21.274Z,17.00
2019-03-26T21:01:50.175Z,13.45
2019-03-26T21:04:19.068Z,13.98
2019-03-26T21:06:48.171Z,15.68
2019-03-26T21:09:17.062Z,11.00
2019-03-26T21:11:46.126Z,10.90
2019-03-26T21:14:15.467Z,15.40
2019-03-26T21:16:44.347Z,22.57
2019-03-26T21:19:13.275Z,14.87
2019-03-26T21:21:42.155Z,24.47
2019-03-26T21:24:11.155Z,14.43
2019-03-26T21:26:40.051Z,16.20
2019-03-26T21:29:09.910Z,12.40
2019-03-26T21:31:38.813Z,18.60
2019-03-26T21:34:07.715Z,13.75
2019-03-26T21:36:36.947Z,19.32
2019-03-26T21:39:06.503Z,11.77
2019-03-26T21:41:36.159Z,13.35
2019-03-26T21:44:05.091Z,15.23
2019-03-26T21:46:34.937Z,16.25
2019-03-26T21:49:03.824Z,17.43
2019-03-26T21:51:32.731Z,13.27
2019-03-26T21:54:01.603Z,16.17
2019-03-26T21:56:31.071Z,16.33
2019-03-26T21:58:59.972Z,16.80
2019-03-26T22:01:29.371Z,12.45
2019-03-26T22:03:58.287Z,18.27
2019-03-26T22:06:27.279Z,16.10
2019-03-26T22:08:56.166Z,15.20
2019-03-26T22:11:25.059Z,14.77
2019-03-26T22:13:53.951Z,12.10
2019-03-26T22:16:22.918Z,20.23
2019-03-26T22:18:51.839Z,9.53
2019-03-26T22:21:20.728Z,17.48
2019-03-26T22:23:49.620Z,9.88
2019-03-26T22:26:18.543Z,16.73
2019-03-26T22:28:47.439Z,12.97
2019-03-26T22:31:16.344Z,16.73
2019-03-26T22:33:45.256Z,13.70
2019-03-26T22:36:14.155Z,19.13
2019-03-26T22:38:43.068Z,17.07
2019-03-26T22:41:11.951Z,11.37
2019-03-26T22:43:40.847Z,18.67
2019-03-26T22:46:09.835Z,16.37
2019-03-26T22:48:38.735Z,16.90
2019-03-26T22:51:08.588Z,12.63
2019-03-26T22:53:38.107Z,14.58
2019-03-26T22:56:06.991Z,13.47
2019-03-26T22:58:35.875Z,12.95
2019-03-26T23:01:04.815Z,15.77
2019-03-26T23:03:33.863Z,13.53
2019-03-26T23:06:02.749Z,15.90
2019-03-26T23:08:31.655Z,13.83
2019-03-26T23:11:00.614Z,13.10
2019-03-26T23:13:29.644Z,14.05
2019-03-26T23:15:58.625Z,15.50
2019-03-26T23:18:27.502Z,13.20
2019-03-26T23:20:56.395Z,13.63
2019-03-26T23:23:25.940Z,16.02
2019-03-26T23:25:54.928Z,14.63
2019-03-26T23:28:23.878Z,16.37
2019-03-26T23:30:52.859Z,17.80
2019-03-26T23:33:21.815Z,12.03
2019-03-26T23:35:50.705Z,12.58
2019-03-26T23:38:19.679Z,12.20
2019-03-26T23:40:48.563Z,11.57
2019-03-26T23:43:17.463Z,13.87
2019-03-26T23:45:46.355Z,16.10
2019-03-26T23:48:15.247Z,14.03
2019-03-26T23:50:44.139Z,10.77
2019-03-26T23:53:13.027Z,11.93
2019-03-26T23:55:41.942Z,13.17
2019-03-26T23:58:10.835Z,15.28
